Aérodrome :
LOGIN :

S'inscrire | Disclaimer

   EN    FR    IT 

 










Légende :    VFR   VFR Marginal   IFR   IFR Intensif   IFR Très Intensif
Visi : 
Plafond : 
>= 8 km
>= 3000ft
5 à 8 km
1000 à 3000 ft
1500m à 5 km
500 à 1000 ft
800 à 1500m
200 à 500 ft
< 800m
< 200 ft
Symboles :   Orages  Brouillard  Fortes neiges  Fortes précipitations  Vent > 20 kt
SIGMETs :   Divers  Orages  Givrage  Turbulence  Onde Orograph.  Cendres Volcan.







- Altitude de l'aérodrome : 796 ft
- Code IATA : SYT
- Voir les cartes d'approche


LFLN - Saint-Yan

DERNIER METAR :
  • 270600Z AUTO 13003KT CAVOK 04/03 Q1012 NOSIG

METARs EXPIRÉS :
  • 270530Z AUTO 13002KT 5000 BR NSC 02/01 Q1013 NOSIG
  • 270500Z AUTO 00000KT 5000 0800 R33/1100D BCFG FEW002 01/01 Q1013
  • 270430Z AUTO VRB02KT 9999 0500 R33/1000D BCFG NSC 01/00 Q1013
  • 270400Z AUTO 15001KT 0600 R33/0650D FG FEW002 01/01 Q1013
  • 270330Z AUTO 24002KT CAVOK 02/01 Q1013

TAF TAF LFLN
Valide du 27 à 06h jusqu'au 27 à 15h UTC


270500Z 2706/2715 VRB02KT 0600 FG FEW002
BECMG 2706/2709 CAVOK
BECMG 2709/2712 24012KT
Pas de NOTAMs connus pour ce terrain.



MET'MAP, la Météo Aéronautique d'un coup d'oeil ! - Copyright ORBIFLY Décembre 2007 - Disclaimer

ORBIFLY MET'MAP TEAM :

Programmation & Développement : Alexandra Zaïnal
Conception & Développement : Baudouin d'Aumeries
Co-Programmation & Développement : Marc-Olivier Méhu
Soutien technique & logistique : Manuel Goepfert

Contact : metmap@orbifly.com




SOURCES & CREDITS :

   NOAA